Flight Track Log - Related Links

Times and Time Zones

All times are in EST time to prevent confusion due to time zone crossing. See the UPS3627 flight status page for this flight to view local times or setup timezone preferences in your user account.

Time Position Orientation Groundspeed Altitude Reporting Facility
EST Latitude Longitude Course Direction KTS MPH feet Rate Location/Type
Wed 12:29:03 AM 38.7500 -90.3833 315° West 135 155 2,800  Level Gateway (St. Louis) TRACON
Wed 12:29:56 AM 38.7797 -90.4217 315° West 175 201 4,100 2,526 Climbing Kansas City Center
Wed 12:30:57 AM 38.8294 -90.4150 North 223 257 7,600 3,197 Climbing Kansas City Center
Wed 12:31:58 AM 38.8150 -90.3194 101° East 270 311 10,600 2,083 Climbing Kansas City Center
Wed 12:32:58 AM 38.7775 -90.2061 113° Southeast 336 387 11,800 1,736 Climbing Kansas City Center
Wed 12:33:59 AM 38.7333 -90.0728 113° Southeast 390 449 14,100 2,450 Climbing Kansas City Center
Wed 12:34:58 AM 38.6853 -89.9325 114° Southeast 418 481 16,700 2,300 Climbing Kansas City Center
Wed 12:35:59 AM 38.6364 -89.7856 113° Southeast 438 504 18,700 1,934 Climbing Kansas City Center
Wed 12:36:59 AM 38.5844 -89.6342 114° Southeast 459 528 20,600 1,869 Climbing Kansas City Center
Wed 12:38:01 AM 38.5308 -89.4778 114° Southeast 478 550 22,500 2,033 Climbing Kansas City Center
Wed 12:39:00 AM 38.4686 -89.2975 114° Southeast 494 568 24,700 1,246 Climbing Kansas City Center
Wed 12:43:14 AM 38.3923 -88.4925 114° Southeast 567 652 29,000 545 Climbing FlightAware ADS-B
Wed 12:46:42 AM 38.3733 -88.0994 93° East 575 662 28,900 -1,273 Descending FlightAware ADS-B
Wed 12:49:50 AM 38.3202 -87.2161 94° East 482 555 20,600 -2,640 Descending FlightAware ADS-B
Wed 12:50:52 AM 38.2996 -87.0530 99° East 440 506 17,900 -2,820 Descending FlightAware ADS-B
Wed 12:51:30 AM 38.2888 -86.9668 99° East 434 499 15,900 -2,352 Descending FlightAware ADS-B
Wed 12:53:48 AM 38.2454 -86.6291 99° East 352 405 11,000 -1,582 Descending FlightAware ADS-B
Wed 12:54:51 AM 38.2321 -86.5280 99° East 299 344 10,600 -610 Descending FlightAware ADS-B
Wed 12:55:46 AM 38.2182 -86.4162 99° East 281 323 9,800 -694 Descending FlightAware ADS-B
Wed 12:56:52 AM 38.2037 -86.3051 99° East 268 308 9,200 -689 Descending FlightAware ADS-B
Wed 12:57:48 AM 38.1956 -86.2442 100° East 245 282 8,400 -800 Descending FlightAware ADS-B
Wed 12:58:52 AM 38.1692 -86.1364 107° East 241 277 7,600 -537 Descending FlightAware ADS-B
Wed 12:59:51 AM 38.1371 -86.0645 120° Southeast 238 274 7,300 -750 Descending FlightAware ADS-B
Wed 01:00:52 AM 38.1048 -85.9926 120° Southeast 233 268 6,100 -1,140 Descending FlightAware ADS-B
Wed 01:01:52 AM 38.0728 -85.9201 119° Southeast 225 259 5,000 -769 Descending FlightAware ADS-B
Wed 01:02:49 AM 38.0448 -85.8563 119° Southeast 225 259 4,600 -202 Descending FlightAware ADS-B
Wed 01:03:51 AM 38.0006 -85.8040 137° Southeast 213 245 4,600 -197 Level FlightAware ADS-B
Wed 01:04:51 AM 37.9437 -85.7839 164° South 207 238 4,200 -397 Descending FlightAware ADS-B
Wed 01:05:52 AM 37.8974 -85.7584 157° South 181 208 3,800 -300 Descending FlightAware ADS-B
Wed 01:06:51 AM 37.9092 -85.6999 76° East 176 203 3,600 -100 Descending FlightAware ADS-B
Wed 01:07:52 AM 37.9487 -85.6726 28° Northeast 163 188 3,600  Level FlightAware ADS-B
Wed 01:08:51 AM 37.9897 -85.6838 348° North 157 181 3,600 -356 Level FlightAware ADS-B
Wed 01:09:50 AM 38.0344 -85.6986 345° North 162 186 2,900 -843 Descending FlightAware ADS-B
Wed 01:10:52 AM 38.0760 -85.7122 345° North 147 169 1,900 -923 Descending FlightAware ADS-B
Wed 01:11:47 AM 38.1109 -85.7236 346° North 119 137 1,100 -776 Descending FlightAware ADS-B
Wed 01:12:17 AM 38.1269 -85.7291 345° North 112 129 800 -600 Descending FlightAware ADS-B

Login

Don't have an account? Register now (free) for customized features, flight alerts, and more!